Time;durP1;ratioP1;P1;durP2;ratioP2;P2;SDS_P1;SDS_P2;PMS_P1;PMS_P2;Temp;Humidity;BMP_temperature;BMP_pressure;BME280_temperature;BME280_humidity;BME280_pressure;Samples;Min_cycle;Max_cycle;Signal;HPM_P1;HPM_P2
2022/11/22 00:00:24;;;;;;;;;;;7.50;99.90;;;;;;5057296;28;19908;-85
2022/11/22 00:02:50;;;;;;;;;;;7.60;99.90;;;;;;5061986;28;19920;-85
2022/11/22 00:05:15;;;;;;;;;;;7.60;99.90;;;;;;5061186;28;19909;-85
2022/11/22 00:07:41;;;;;;;;;;;7.60;99.90;;;;;;5062383;28;19917;-85
2022/11/22 00:10:07;;;;;;;;;;;7.60;99.90;;;;;;5061519;28;19916;-84
2022/11/22 00:12:33;;;;;;;;;;;7.70;99.90;;;;;;5064008;22;19925;-85
2022/11/22 00:14:58;;;;;;;;;;;7.70;99.90;;;;;;5088185;28;20262;-85
2022/11/22 00:17:24;;;;;;;;;;;7.70;99.90;;;;;;5087870;28;19915;-86
2022/11/22 00:19:50;;;;;;;;;;;7.70;99.90;;;;;;5055085;28;19908;-86
2022/11/22 00:22:16;;;;;;;;;;;7.70;99.90;;;;;;5070673;28;19916;-85
2022/11/22 00:24:42;;;;;;;;;;;7.70;99.90;;;;;;5053589;28;19909;-85
2022/11/22 00:27:08;;;;;;;;;;;7.70;99.90;;;;;;5053881;28;20012;-86
2022/11/22 00:29:34;;;;;;;;;;;7.70;99.90;;;;;;5055779;28;20002;-85
2022/11/22 00:31:59;;;;;;;;;;;7.60;99.90;;;;;;5054916;28;19909;-85
2022/11/22 00:34:25;;;;;;;;;;;7.60;99.90;;;;;;5053294;28;20340;-87
2022/11/22 00:36:50;;;;;;;;;;;7.60;99.90;;;;;;5054356;28;19913;-86
2022/11/22 00:39:15;;;;;;;;;;;7.60;99.90;;;;;;5053250;28;19920;-84
2022/11/22 00:41:41;;;;;;;;;;;7.60;99.90;;;;;;5054660;28;19995;-85
2022/11/22 00:44:06;;;;;;;;;;;7.60;99.90;;;;;;5053494;28;20354;-86
2022/11/22 00:46:32;;;;;;;;;;;7.60;99.90;;;;;;5054694;28;19970;-85
2022/11/22 00:48:57;;;;;;;;;;;7.60;99.90;;;;;;5054475;28;19913;-85
2022/11/22 00:51:23;;;;;;;;;;;7.60;99.90;;;;;;5054862;28;19909;-86
2022/11/22 00:53:48;;;;;;;;;;;7.60;99.90;;;;;;5054968;28;19998;-87
2022/11/22 00:56:14;;;;;;;;;;;7.60;99.90;;;;;;5055342;28;20274;-85
2022/11/22 00:58:39;;;;;;;;;;;7.70;99.90;;;;;;5053566;28;19916;-84
2022/11/22 01:01:05;;;;;;;;;;;7.70;99.90;;;;;;5055523;28;19909;-85
2022/11/22 01:03:30;;;;;;;;;;;7.60;99.90;;;;;;5052651;28;19913;-86
2022/11/22 01:05:55;;;;;;;;;;;7.60;99.90;;;;;;5052807;28;19935;-85
2022/11/22 01:08:21;;;;;;;;;;;7.50;99.90;;;;;;5056141;28;20011;-86
2022/11/22 01:10:46;;;;;;;;;;;7.50;99.90;;;;;;5056355;28;19909;-84
2022/11/22 01:13:12;;;;;;;;;;;7.50;99.90;;;;;;5055224;28;19913;-86
2022/11/22 01:15:37;;;;;;;;;;;7.50;99.90;;;;;;5055153;28;19999;-85
2022/11/22 01:18:03;;;;;;;;;;;7.60;99.90;;;;;;5054475;28;19908;-85
2022/11/22 01:20:29;;;;;;;;;;;7.60;99.90;;;;;;5054621;28;20330;-84
2022/11/22 01:22:55;;;;;;;;;;;7.60;99.90;;;;;;5053444;28;19909;-84
2022/11/22 01:25:21;;;;;;;;;;;7.60;99.90;;;;;;5053240;28;20289;-86
2022/11/22 01:27:46;;;;;;;;;;;7.50;99.90;;;;;;5054271;28;19917;-85
2022/11/22 01:30:12;;;;;;;;;;;7.50;99.90;;;;;;5052819;28;19908;-86
2022/11/22 01:32:37;;;;;;;;;;;7.50;99.90;;;;;;5053435;28;20354;-87
2022/11/22 01:35:03;;;;;;;;;;;7.50;99.90;;;;;;5053112;28;20318;-85
2022/11/22 01:37:28;;;;;;;;;;;7.40;99.90;;;;;;5053247;28;19913;-85
2022/11/22 01:39:54;;;;;;;;;;;7.40;99.90;;;;;;5040170;28;19913;-86
2022/11/22 01:42:19;;;;;;;;;;;7.40;99.90;;;;;;5032897;28;20374;-85
2022/11/22 01:44:46;;;;;;;;;;;7.30;99.90;;;;;;5034487;28;19909;-86
2022/11/22 01:47:19;;;;;;;;;;;7.30;99.90;;;;;;5033478;28;20393;-84
2022/11/22 01:49:53;;;;;;;;;;;7.20;99.90;;;;;;5035061;28;20406;-86
2022/11/22 01:52:20;;;;;;;;;;;7.20;99.90;;;;;;5032963;28;19909;-86
2022/11/22 01:54:49;;;;;;;;;;;7.20;99.90;;;;;;5034681;28;20003;-85
2022/11/22 01:57:17;;;;;;;;;;;7.10;99.90;;;;;;5037109;28;19910;-87
2022/11/22 01:59:46;;;;;;;;;;;7.10;99.90;;;;;;5036709;28;19916;-86
2022/11/22 02:02:11;;;;;;;;;;;7.10;99.90;;;;;;5037315;28;19922;-86
2022/11/22 02:04:38;;;;;;;;;;;7.00;99.90;;;;;;5038495;28;19913;-86
2022/11/22 02:07:09;;;;;;;;;;;7.00;99.90;;;;;;5039263;28;19956;-84
2022/11/22 02:09:36;;;;;;;;;;;7.00;99.90;;;;;;5036557;28;19909;-85
2022/11/22 02:12:03;;;;;;;;;;;7.00;99.90;;;;;;5038051;28;19917;-85
2022/11/22 02:14:30;;;;;;;;;;;7.00;99.90;;;;;;5036146;28;19952;-87
2022/11/22 02:16:55;;;;;;;;;;;7.00;99.90;;;;;;5036970;28;19932;-87
2022/11/22 02:19:42;;;;;;;;;;;6.90;99.90;;;;;;5036599;28;20370;-85
2022/11/22 02:22:26;;;;;;;;;;;6.90;99.90;;;;;;5036775;28;19956;-86
2022/11/22 02:24:54;;;;;;;;;;;6.80;99.90;;;;;;5037738;28;19909;-86
2022/11/22 02:27:19;;;;;;;;;;;6.80;99.90;;;;;;5038347;28;20271;-85
2022/11/22 02:29:45;;;;;;;;;;;6.80;99.90;;;;;;5038824;28;19959;-86
2022/11/22 02:32:10;;;;;;;;;;;6.70;99.90;;;;;;5037285;28;19913;-85
2022/11/22 02:34:47;;;;;;;;;;;6.70;99.90;;;;;;5036282;28;20004;-86
2022/11/22 02:37:14;;;;;;;;;;;6.70;99.90;;;;;;5036228;28;19975;-87
2022/11/22 02:39:40;;;;;;;;;;;6.70;99.90;;;;;;5037156;28;19916;-87
2022/11/22 02:42:06;;;;;;;;;;;6.60;99.90;;;;;;5036234;28;19909;-86
2022/11/22 02:44:32;;;;;;;;;;;6.60;99.90;;;;;;5037617;28;20012;-85
2022/11/22 02:46:57;;;;;;;;;;;6.60;99.90;;;;;;5036631;28;19916;-86
2022/11/22 02:49:23;;;;;;;;;;;6.60;99.90;;;;;;5035951;28;19948;-86
2022/11/22 02:51:50;;;;;;;;;;;6.60;99.90;;;;;;5047823;28;19957;-84
2022/11/22 02:54:16;;;;;;;;;;;6.60;99.90;;;;;;5055671;28;19908;-85
2022/11/22 02:56:41;;;;;;;;;;;6.60;99.90;;;;;;5055790;28;19955;-85
2022/11/22 02:59:07;;;;;;;;;;;6.50;99.90;;;;;;5056902;28;19955;-85
2022/11/22 03:01:32;;;;;;;;;;;6.50;99.90;;;;;;5056228;28;19916;-86
2022/11/22 03:03:57;;;;;;;;;;;6.40;99.90;;;;;;5055438;28;19954;-87
2022/11/22 03:06:23;;;;;;;;;;;6.40;99.90;;;;;;5055002;28;19909;-86
2022/11/22 03:08:48;;;;;;;;;;;6.40;99.90;;;;;;5055539;28;20003;-86
2022/11/22 03:11:14;;;;;;;;;;;6.30;99.90;;;;;;5055843;28;19920;-86
2022/11/22 03:13:39;;;;;;;;;;;6.30;99.90;;;;;;5072374;28;19978;-85
2022/11/22 03:16:05;;;;;;;;;;;6.30;99.90;;;;;;5056387;28;19909;-86
2022/11/22 03:18:35;;;;;;;;;;;6.20;99.90;;;;;;5056735;28;19996;-84
2022/11/22 03:21:01;;;;;;;;;;;6.20;99.90;;;;;;5057263;28;19908;-86
2022/11/22 03:23:27;;;;;;;;;;;6.20;99.90;;;;;;5055907;28;20370;-85
2022/11/22 03:25:53;;;;;;;;;;;6.20;99.90;;;;;;5055703;28;20008;-86
2022/11/22 03:28:18;;;;;;;;;;;6.10;99.90;;;;;;5071888;28;20011;-85
2022/11/22 03:30:44;;;;;;;;;;;6.10;99.90;;;;;;5056075;28;19908;-85
2022/11/22 03:33:09;;;;;;;;;;;6.20;99.90;;;;;;5071211;28;19955;-85
2022/11/22 03:35:35;;;;;;;;;;;6.10;99.90;;;;;;5056593;28;19909;-85
2022/11/22 03:38:00;;;;;;;;;;;6.20;99.90;;;;;;5055800;28;20457;-85
2022/11/22 03:40:26;;;;;;;;;;;6.20;99.90;;;;;;5055633;28;19909;-85
2022/11/22 03:42:51;;;;;;;;;;;6.20;99.90;;;;;;5054051;28;20408;-87
2022/11/22 03:45:17;;;;;;;;;;;6.30;99.90;;;;;;5054496;28;20057;-84
2022/11/22 03:47:42;;;;;;;;;;;6.30;99.90;;;;;;5054162;28;19913;-86
2022/11/22 03:50:08;;;;;;;;;;;6.30;99.90;;;;;;5054225;28;20329;-86
2022/11/22 03:52:33;;;;;;;;;;;6.30;99.90;;;;;;5055042;28;19915;-87
2022/11/22 03:54:59;;;;;;;;;;;6.30;99.90;;;;;;5054211;28;20281;-85
2022/11/22 03:57:24;;;;;;;;;;;6.30;99.90;;;;;;5054413;28;20015;-86
2022/11/22 03:59:49;;;;;;;;;;;6.40;99.90;;;;;;5053644;28;19913;-85
2022/11/22 04:02:15;;;;;;;;;;;6.40;99.90;;;;;;5054009;28;19909;-84
2022/11/22 04:04:41;;;;;;;;;;;6.40;99.90;;;;;;5054473;28;19919;-84
2022/11/22 04:07:07;;;;;;;;;;;6.50;99.90;;;;;;5053658;28;19916;-85
2022/11/22 04:09:32;;;;;;;;;;;6.50;99.90;;;;;;5053676;28;19915;-85
2022/11/22 04:11:58;;;;;;;;;;;6.50;99.90;;;;;;5053307;28;20000;-85
2022/11/22 04:17:10;;;;;;;;;;;6.40;99.90;;;;;;5054910;28;19916;-85
2022/11/22 04:19:36;;;;;;;;;;;6.40;99.90;;;;;;5054835;28;19915;-85
2022/11/22 04:22:01;;;;;;;;;;;6.30;99.90;;;;;;5053242;28;19909;-86
2022/11/22 04:27:11;;;;;;;;;;;6.30;99.90;;;;;;5054556;28;20347;-85
2022/11/22 04:29:36;;;;;;;;;;;6.30;99.90;;;;;;5053381;28;20011;-86
2022/11/22 04:34:46;;;;;;;;;;;6.30;99.90;;;;;;5054331;28;19931;-85
2022/11/22 04:37:11;;;;;;;;;;;6.30;99.90;;;;;;5070038;28;19999;-86
2022/11/22 04:39:37;;;;;;;;;;;6.30;99.90;;;;;;5054484;28;19916;-86
2022/11/22 04:44:47;;;;;;;;;;;6.20;99.90;;;;;;5054380;28;20432;-83
2022/11/22 04:48:15;;;;;;;;;;;6.20;99.90;;;;;;5069566;28;20031;-85
2022/11/22 04:52:54;;;;;;;;;;;6.10;99.90;;;;;;5053959;28;20058;-85
2022/11/22 04:55:20;;;;;;;;;;;6.10;99.90;;;;;;5052893;28;19995;-85
2022/11/22 04:57:45;;;;;;;;;;;6.10;99.90;;;;;;5052686;28;19944;-85
2022/11/22 05:00:11;;;;;;;;;;;6.00;99.90;;;;;;5054082;28;19919;-85
2022/11/22 05:02:36;;;;;;;;;;;6.00;99.90;;;;;;5052682;28;20317;-86
2022/11/22 05:05:02;;;;;;;;;;;6.00;99.90;;;;;;5053733;28;19913;-85
2022/11/22 05:07:27;;;;;;;;;;;6.00;99.90;;;;;;5052806;28;19971;-85
2022/11/22 05:09:52;;;;;;;;;;;6.00;99.90;;;;;;5052784;28;19913;-84
2022/11/22 05:12:18;;;;;;;;;;;6.00;99.90;;;;;;5052759;28;19923;-85
2022/11/22 05:14:43;;;;;;;;;;;6.00;99.90;;;;;;5069505;28;19916;-85
2022/11/22 05:17:09;;;;;;;;;;;6.00;99.90;;;;;;5054521;28;20356;-84
2022/11/22 05:19:34;;;;;;;;;;;6.00;99.90;;;;;;5052976;28;19961;-86
2022/11/22 05:22:00;;;;;;;;;;;5.90;99.90;;;;;;5053569;28;20278;-86
2022/11/22 05:24:25;;;;;;;;;;;5.90;99.90;;;;;;5054330;28;19909;-85
2022/11/22 05:26:51;;;;;;;;;;;5.90;99.90;;;;;;5053381;28;19908;-86
2022/11/22 05:29:16;;;;;;;;;;;5.90;99.90;;;;;;5055228;28;19915;-85
2022/11/22 05:31:42;;;;;;;;;;;5.90;99.90;;;;;;5073412;28;19959;-85
2022/11/22 05:34:08;;;;;;;;;;;5.90;99.90;;;;;;5056477;28;19963;-84
2022/11/22 05:36:33;;;;;;;;;;;5.80;99.90;;;;;;5056960;28;19909;-85
2022/11/22 05:38:59;;;;;;;;;;;5.80;99.90;;;;;;5057143;28;19909;-86
2022/11/22 05:41:24;;;;;;;;;;;5.80;99.90;;;;;;5056743;28;19909;-85
2022/11/22 05:43:50;;;;;;;;;;;5.80;99.90;;;;;;5056679;28;19912;-84
2022/11/22 05:46:19;;;;;;;;;;;5.80;99.90;;;;;;5058156;28;20294;-86
2022/11/22 05:48:45;;;;;;;;;;;5.80;99.90;;;;;;5056445;28;19948;-86
2022/11/22 05:51:12;;;;;;;;;;;5.70;99.90;;;;;;5057210;28;19962;-85
2022/11/22 05:53:38;;;;;;;;;;;5.70;99.90;;;;;;5056134;28;19999;-86
2022/11/22 05:56:07;;;;;;;;;;;5.60;99.90;;;;;;5058030;28;19936;-86
2022/11/22 05:58:33;;;;;;;;;;;5.60;99.90;;;;;;5056375;28;19909;-85
2022/11/22 06:01:15;;;;;;;;;;;5.50;99.90;;;;;;5057060;28;19962;-83
2022/11/22 06:03:41;;;;;;;;;;;5.50;99.90;;;;;;5056353;28;19913;-83
2022/11/22 06:06:06;;;;;;;;;;;5.50;99.90;;;;;;5058049;28;19915;-85
2022/11/22 06:08:33;;;;;;;;;;;5.60;99.90;;;;;;5056255;28;19913;-86
2022/11/22 06:13:34;;;;;;;;;;;5.60;99.90;;;;;;5062242;28;20387;-85
2022/11/22 06:15:59;;;;;;;;;;;5.60;99.90;;;;;;5063674;28;19909;-85
2022/11/22 06:18:25;;;;;;;;;;;5.60;99.90;;;;;;5064294;28;19916;-85
2022/11/22 06:20:51;;;;;;;;;;;5.60;99.90;;;;;;5063947;28;19909;-85
2022/11/22 06:23:16;;;;;;;;;;;5.60;99.90;;;;;;5062998;28;19909;-84
2022/11/22 06:25:42;;;;;;;;;;;5.60;99.90;;;;;;5063586;28;20027;-85
2022/11/22 06:28:07;;;;;;;;;;;5.60;99.90;;;;;;5063056;28;19917;-85
2022/11/22 06:30:33;;;;;;;;;;;5.60;99.90;;;;;;5063004;28;19932;-85
2022/11/22 06:32:58;;;;;;;;;;;5.60;99.90;;;;;;5061946;28;19913;-84
2022/11/22 06:35:23;;;;;;;;;;;5.60;99.90;;;;;;5065012;28;19909;-84
2022/11/22 06:37:49;;;;;;;;;;;5.60;99.90;;;;;;5064931;28;19980;-85
2022/11/22 06:40:17;;;;;;;;;;;5.70;99.90;;;;;;5061159;28;19909;-85
2022/11/22 06:42:43;;;;;;;;;;;5.70;99.90;;;;;;5062351;28;19909;-84
2022/11/22 06:45:08;;;;;;;;;;;5.70;99.90;;;;;;5065191;28;19931;-84
2022/11/22 06:47:34;;;;;;;;;;;5.70;99.90;;;;;;5061435;28;19917;-84
2022/11/22 06:49:59;;;;;;;;;;;5.70;99.90;;;;;;5061129;28;19909;-85
2022/11/22 06:52:25;;;;;;;;;;;5.80;99.90;;;;;;5063644;28;20279;-84
2022/11/22 06:54:50;;;;;;;;;;;5.70;99.90;;;;;;5060836;28;19909;-85
2022/11/22 06:57:16;;;;;;;;;;;5.70;99.90;;;;;;5061091;28;19909;-85
2022/11/22 06:59:41;;;;;;;;;;;5.80;99.90;;;;;;5061018;28;19909;-85
2022/11/22 07:02:09;;;;;;;;;;;5.80;99.90;;;;;;5061762;28;20459;-84
2022/11/22 07:04:35;;;;;;;;;;;5.80;99.90;;;;;;5061839;28;19908;-84
2022/11/22 07:07:00;;;;;;;;;;;5.80;99.90;;;;;;5061073;28;19920;-85
2022/11/22 07:09:25;;;;;;;;;;;5.80;99.90;;;;;;5060607;28;19912;-84
2022/11/22 07:11:51;;;;;;;;;;;5.80;99.90;;;;;;5060758;28;19917;-86
2022/11/22 07:14:16;;;;;;;;;;;5.80;99.90;;;;;;5062617;28;19970;-84
2022/11/22 07:16:42;;;;;;;;;;;5.90;99.90;;;;;;5060965;28;20362;-84
2022/11/22 07:19:08;;;;;;;;;;;5.80;99.90;;;;;;5061048;28;19909;-85
2022/11/22 07:21:36;;;;;;;;;;;5.80;99.90;;;;;;5060435;28;19944;-84
2022/11/22 07:24:02;;;;;;;;;;;5.80;99.90;;;;;;5060398;28;19916;-84
2022/11/22 07:26:28;;;;;;;;;;;5.80;99.90;;;;;;5061663;28;19912;-85
2022/11/22 07:28:53;;;;;;;;;;;5.80;99.90;;;;;;5061929;28;19913;-84
2022/11/22 07:31:19;;;;;;;;;;;5.90;99.90;;;;;;5062493;28;20346;-84
2022/11/22 07:33:44;;;;;;;;;;;6.00;99.90;;;;;;5060364;28;19925;-84
2022/11/22 07:36:14;;;;;;;;;;;5.90;99.90;;;;;;5060565;28;19919;-85
2022/11/22 07:38:40;;;;;;;;;;;5.90;99.90;;;;;;5061737;28;19977;-84
2022/11/22 07:41:06;;;;;;;;;;;6.00;99.90;;;;;;5059554;28;20003;-85
2022/11/22 07:43:31;;;;;;;;;;;6.00;99.90;;;;;;5059086;28;19915;-84
2022/11/22 07:45:58;;;;;;;;;;;6.00;99.90;;;;;;5059172;28;19936;-83
2022/11/22 07:48:23;;;;;;;;;;;6.10;99.90;;;;;;5061310;28;19913;-84
2022/11/22 07:50:49;;;;;;;;;;;6.10;99.90;;;;;;5059149;28;19960;-84
2022/11/22 07:53:14;;;;;;;;;;;6.10;99.90;;;;;;5059327;28;19958;-84
2022/11/22 07:55:39;;;;;;;;;;;6.10;99.90;;;;;;5059785;28;19916;-84
2022/11/22 07:58:05;;;;;;;;;;;6.20;99.90;;;;;;5061437;28;19908;-84
2022/11/22 08:00:30;;;;;;;;;;;6.20;99.90;;;;;;5058835;28;19913;-84
2022/11/22 08:02:56;;;;;;;;;;;6.20;99.90;;;;;;5058773;28;19916;-85
2022/11/22 08:05:22;;;;;;;;;;;6.20;99.90;;;;;;5060339;28;20293;-84
2022/11/22 08:07:51;;;;;;;;;;;6.30;99.90;;;;;;5059818;28;19917;-85
2022/11/22 08:10:18;;;;;;;;;;;6.30;99.90;;;;;;5060290;28;20414;-84
2022/11/22 08:12:44;;;;;;;;;;;6.40;99.90;;;;;;5059409;28;19917;-85
2022/11/22 08:15:10;;;;;;;;;;;6.40;99.90;;;;;;5060914;28;20266;-84
2022/11/22 08:17:37;;;;;;;;;;;6.40;99.90;;;;;;5059973;28;19944;-84
2022/11/22 08:20:03;;;;;;;;;;;6.50;99.90;;;;;;5040111;28;19909;-85
2022/11/22 08:22:28;;;;;;;;;;;6.50;99.90;;;;;;5047147;28;19912;-85
2022/11/22 08:24:54;;;;;;;;;;;6.50;99.90;;;;;;5058679;28;19971;-84
2022/11/22 08:27:19;;;;;;;;;;;6.60;99.90;;;;;;5058500;28;19913;-84
2022/11/22 08:29:45;;;;;;;;;;;6.70;99.90;;;;;;5058367;28;19908;-84
2022/11/22 08:32:10;;;;;;;;;;;6.80;99.90;;;;;;5058156;28;20017;-84
2022/11/22 08:34:35;;;;;;;;;;;6.90;99.90;;;;;;5057993;28;19919;-85
2022/11/22 08:37:01;;;;;;;;;;;7.00;99.90;;;;;;5058820;28;19948;-84
2022/11/22 08:39:26;;;;;;;;;;;7.10;99.90;;;;;;5058216;28;19952;-84
2022/11/22 08:41:52;;;;;;;;;;;7.30;99.90;;;;;;5058647;28;19908;-84
2022/11/22 08:44:17;;;;;;;;;;;7.40;99.90;;;;;;5058733;28;19908;-84
2022/11/22 08:46:43;;;;;;;;;;;7.40;99.90;;;;;;5059285;28;20417;-85
2022/11/22 08:49:09;;;;;;;;;;;7.50;99.90;;;;;;5058885;28;19923;-84
2022/11/22 08:51:35;;;;;;;;;;;7.50;99.90;;;;;;5058434;28;19912;-84
2022/11/22 08:54:01;;;;;;;;;;;7.60;99.90;;;;;;5057378;28;20332;-84
2022/11/22 08:56:26;;;;;;;;;;;7.60;99.90;;;;;;5058270;28;19913;-84
2022/11/22 08:58:52;;;;;;;;;;;7.70;99.90;;;;;;5057319;28;19999;-84
2022/11/22 09:01:20;;;;;;;;;;;7.70;99.90;;;;;;5059730;28;19909;-85
2022/11/22 09:03:46;;;;;;;;;;;7.70;99.90;;;;;;5058627;28;19909;-84
2022/11/22 09:06:12;;;;;;;;;;;7.70;99.90;;;;;;5056999;28;19932;-84
2022/11/22 09:08:38;;;;;;;;;;;7.80;99.90;;;;;;5052066;28;20389;-85
2022/11/22 09:11:05;;;;;;;;;;;7.80;99.90;;;;;;5062074;28;19909;-84
2022/11/22 09:13:31;;;;;;;;;;;7.90;99.90;;;;;;5055020;28;19964;-84
2022/11/22 09:16:03;;;;;;;;;;;8.00;99.90;;;;;;5053309;28;20295;-84
2022/11/22 09:18:29;;;;;;;;;;;8.10;99.90;;;;;;5052045;28;19909;-84
2022/11/22 09:21:01;;;;;;;;;;;8.30;99.90;;;;;;5053855;28;19916;-84
2022/11/22 09:23:27;;;;;;;;;;;8.40;99.90;;;;;;5050598;28;19956;-84
2022/11/22 09:26:13;;;;;;;;;;;8.60;99.90;;;;;;5052076;28;19972;-83
2022/11/22 09:28:38;;;;;;;;;;;8.50;99.90;;;;;;5051974;28;19920;-84
2022/11/22 09:31:05;;;;;;;;;;;8.40;99.90;;;;;;5051029;28;20370;-84
2022/11/22 09:33:31;;;;;;;;;;;8.40;99.90;;;;;;5052044;28;19909;-82
2022/11/22 09:35:59;;;;;;;;;;;8.40;99.90;;;;;;5051417;28;20015;-84
2022/11/22 09:38:25;;;;;;;;;;;8.60;99.90;;;;;;5054426;28;19908;-84
2022/11/22 09:43:26;;;;;;;;;;;9.00;99.90;;;;;;5229857;22;19932;-86
2022/11/22 09:46:15;;;;;;;;;;;9.10;99.90;;;;;;5047974;28;19913;-84
2022/11/22 09:48:41;;;;;;;;;;;9.20;99.90;;;;;;5051496;28;19917;-85
2022/11/22 09:51:16;;;;;;;;;;;9.30;99.90;;;;;;5051759;28;19916;-84
2022/11/22 09:53:46;;;;;;;;;;;9.30;99.90;;;;;;5042618;28;19918;-83
2022/11/22 09:56:13;;;;;;;;;;;9.50;99.90;;;;;;5036360;28;20374;-83
2022/11/22 09:58:41;;;;;;;;;;;9.80;99.90;;;;;;5037019;28;19916;-83
2022/11/22 10:01:12;;;;;;;;;;;10.00;99.90;;;;;;5034943;28;19910;-83
2022/11/22 10:03:44;;;;;;;;;;;10.30;99.90;;;;;;5035956;28;19914;-83
2022/11/22 10:06:16;;;;;;;;;;;10.60;99.90;;;;;;5037309;28;19920;-83
2022/11/22 10:09:01;;;;;;;;;;;10.80;99.90;;;;;;5038875;28;19920;-85
2022/11/22 10:11:33;;;;;;;;;;;11.00;99.90;;;;;;5050183;28;19900;-84
2022/11/22 10:14:05;;;;;;;;;;;10.90;99.90;;;;;;5051046;28;19909;-85
2022/11/22 10:41:30;;;;;;;;;;;10.30;99.90;;;;;;5045583;28;19928;-85
2022/11/22 10:44:32;;;;;;;;;;;10.30;99.90;;;;;;5027666;28;19924;-83
2022/11/22 10:46:57;;;;;;;;;;;10.50;99.90;;;;;;5067188;28;19916;-83
2022/11/22 10:49:42;;;;;;;;;;;10.60;99.90;;;;;;5065736;28;19917;-84
2022/11/22 10:52:27;;;;;;;;;;;10.70;99.90;;;;;;5061154;28;20300;-85
2022/11/22 10:54:52;;;;;;;;;;;10.80;99.90;;;;;;5067302;28;20281;-84
2022/11/22 10:57:28;;;;;;;;;;;11.00;99.90;;;;;;5066862;28;19933;-83
2022/11/22 10:59:54;;;;;;;;;;;11.40;99.90;;;;;;5048444;28;20425;-84
2022/11/22 11:02:31;;;;;;;;;;;11.60;99.90;;;;;;5064400;28;19916;-84
2022/11/22 11:04:58;;;;;;;;;;;11.60;99.90;;;;;;5065047;28;19916;-82
2022/11/22 11:07:24;;;;;;;;;;;11.60;99.90;;;;;;5063598;28;19913;-83
2022/11/22 11:09:52;;;;;;;;;;;11.60;99.90;;;;;;5065548;28;19919;-83
2022/11/22 11:12:27;;;;;;;;;;;11.30;99.90;;;;;;5064280;28;19932;-84
2022/11/22 11:14:55;;;;;;;;;;;11.30;99.90;;;;;;5062598;28;19909;-85
2022/11/22 11:17:25;;;;;;;;;;;11.00;99.90;;;;;;5057953;28;19985;-84
2022/11/22 11:19:51;;;;;;;;;;;11.10;99.90;;;;;;5050330;28;19909;-85
2022/11/22 11:22:20;;;;;;;;;;;11.40;99.90;;;;;;5058656;28;19927;-83
2022/11/22 11:24:46;;;;;;;;;;;12.00;99.90;;;;;;5065711;28;19917;-83
2022/11/22 11:27:12;;;;;;;;;;;12.30;99.90;;;;;;5057427;28;20411;-84
2022/11/22 11:29:58;;;;;;;;;;;12.50;99.90;;;;;;5047157;28;20020;-82
2022/11/22 11:32:24;;;;;;;;;;;12.60;99.90;;;;;;5054609;28;19919;-83
2022/11/22 11:35:03;;;;;;;;;;;14.40;99.90;;;;;;5055936;28;19909;-82
2022/11/22 11:37:33;;;;;;;;;;;15.50;99.90;;;;;;5054678;28;20517;-84
2022/11/22 11:39:59;;;;;;;;;;;15.40;99.90;;;;;;5054578;28;19909;-81
2022/11/22 11:42:26;;;;;;;;;;;15.60;99.90;;;;;;5053896;28;19916;-82
2022/11/22 11:44:52;;;;;;;;;;;16.90;99.90;;;;;;5055943;28;19917;-82
2022/11/22 11:47:29;;;;;;;;;;;16.40;99.90;;;;;;5055911;28;19916;-83
2022/11/22 11:49:55;;;;;;;;;;;17.60;99.90;;;;;;5054493;28;19908;-83
2022/11/22 11:52:22;;;;;;;;;;;19.10;97.50;;;;;;5054298;28;20389;-81
2022/11/22 11:54:49;;;;;;;;;;;19.30;95.40;;;;;;5055761;28;19909;-80
2022/11/22 11:57:17;;;;;;;;;;;18.70;94.50;;;;;;5055212;28;19920;-83
2022/11/22 11:59:45;;;;;;;;;;;18.50;93.60;;;;;;5055666;28;20282;-80
2022/11/22 12:02:11;;;;;;;;;;;17.80;93.90;;;;;;5055143;28;19917;-83
2022/11/22 12:04:47;;;;;;;;;;;17.30;94.00;;;;;;5055013;28;20362;-83
2022/11/22 12:07:17;;;;;;;;;;;17.50;95.00;;;;;;5053246;28;20298;-83
2022/11/22 12:09:44;;;;;;;;;;;18.30;94.50;;;;;;5052565;28;19991;-82
2022/11/22 12:12:19;;;;;;;;;;;17.90;92.80;;;;;;5053096;28;19912;-82
2022/11/22 12:14:49;;;;;;;;;;;16.90;94.50;;;;;;5054324;28;19916;-83
2022/11/22 12:17:22;;;;;;;;;;;16.30;96.10;;;;;;5054762;28;19909;-82
2022/11/22 12:19:50;;;;;;;;;;;15.10;99.40;;;;;;5052994;28;20320;-82
2022/11/22 12:22:18;;;;;;;;;;;14.10;99.90;;;;;;5052902;28;19916;-82
2022/11/22 12:24:49;;;;;;;;;;;13.40;99.90;;;;;;5046973;28;19978;-82
2022/11/22 12:27:14;;;;;;;;;;;13.00;99.90;;;;;;5051718;28;20388;-82
2022/11/22 12:29:41;;;;;;;;;;;12.70;99.90;;;;;;5033130;28;19952;-83
2022/11/22 12:32:11;;;;;;;;;;;12.50;99.90;;;;;;5033532;28;20286;-82
2022/11/22 12:34:57;;;;;;;;;;;12.30;99.90;;;;;;5049427;28;19917;-83
2022/11/22 12:37:25;;;;;;;;;;;12.00;99.90;;;;;;5069289;28;19916;-81
2022/11/22 12:39:52;;;;;;;;;;;11.90;99.90;;;;;;5073406;28;19909;-82
2022/11/22 12:42:20;;;;;;;;;;;11.80;99.90;;;;;;5059310;28;20354;-82
2022/11/22 12:44:49;;;;;;;;;;;11.70;99.90;;;;;;5070268;28;19917;-83
2022/11/22 12:47:17;;;;;;;;;;;11.60;99.90;;;;;;5053842;28;19909;-82
2022/11/22 12:49:48;;;;;;;;;;;11.60;99.90;;;;;;5052247;28;19934;-82
2022/11/22 12:52:13;;;;;;;;;;;11.50;99.90;;;;;;5054266;28;19971;-83
2022/11/22 12:54:46;;;;;;;;;;;11.50;99.90;;;;;;5054819;28;19909;-83
2022/11/22 12:57:21;;;;;;;;;;;11.30;99.90;;;;;;5055415;28;19909;-82
2022/11/22 12:59:57;;;;;;;;;;;11.30;99.90;;;;;;5053387;28;20012;-82
2022/11/22 13:02:37;;;;;;;;;;;11.20;99.90;;;;;;5048280;28;19909;-83
2022/11/22 13:05:08;;;;;;;;;;;11.10;99.90;;;;;;5036359;28;19910;-82
2022/11/22 13:07:34;;;;;;;;;;;11.00;99.90;;;;;;5034719;28;20019;-82
2022/11/22 13:10:18;;;;;;;;;;;10.90;99.90;;;;;;5062091;28;19986;-83
2022/11/22 13:12:44;;;;;;;;;;;10.90;99.90;;;;;;5053712;28;19913;-82
2022/11/22 13:15:17;;;;;;;;;;;10.90;99.90;;;;;;5053575;28;19909;-82
2022/11/22 13:17:42;;;;;;;;;;;10.80;99.90;;;;;;5053537;28;19948;-83
2022/11/22 13:20:19;;;;;;;;;;;10.80;99.90;;;;;;5045294;28;19928;-84
2022/11/22 13:23:03;;;;;;;;;;;10.80;99.90;;;;;;5054188;28;20359;-85
2022/11/22 13:25:28;;;;;;;;;;;11.00;99.90;;;;;;5051554;28;19913;-83
2022/11/22 13:27:58;;;;;;;;;;;11.00;99.90;;;;;;5051962;28;19923;-83
2022/11/22 13:30:25;;;;;;;;;;;10.90;99.90;;;;;;5052108;28;19917;-83
2022/11/22 13:32:52;;;;;;;;;;;10.80;99.90;;;;;;5073020;28;20022;-82
2022/11/22 13:35:22;;;;;;;;;;;10.80;99.90;;;;;;5073139;28;20361;-83
2022/11/22 13:37:49;;;;;;;;;;;10.80;99.90;;;;;;5072443;28;19955;-82
2022/11/22 13:40:15;;;;;;;;;;;10.70;99.90;;;;;;5072027;28;19908;-82
2022/11/22 13:42:40;;;;;;;;;;;10.60;99.90;;;;;;5072718;28;19909;-83
2022/11/22 13:45:19;;;;;;;;;;;10.50;99.90;;;;;;5072439;28;19913;-83
2022/11/22 13:47:45;;;;;;;;;;;10.60;99.90;;;;;;5071701;28;20337;-83
2022/11/22 13:50:29;;;;;;;;;;;10.60;99.90;;;;;;5074319;28;19916;-83
2022/11/22 13:52:55;;;;;;;;;;;10.60;99.90;;;;;;5076557;28;20350;-83
2022/11/22 13:55:26;;;;;;;;;;;10.60;99.90;;;;;;5075906;28;19919;-83
2022/11/22 13:57:51;;;;;;;;;;;10.60;99.90;;;;;;5075147;28;20344;-83
2022/11/22 14:00:18;;;;;;;;;;;10.50;99.90;;;;;;5064534;28;19913;-83
2022/11/22 14:02:48;;;;;;;;;;;10.60;99.90;;;;;;5051788;28;20302;-84
2022/11/22 14:05:18;;;;;;;;;;;10.60;99.90;;;;;;5037204;28;20473;-83
2022/11/22 14:07:44;;;;;;;;;;;10.60;99.90;;;;;;5036753;28;19913;-83
2022/11/22 14:10:28;;;;;;;;;;;10.60;99.90;;;;;;5036163;28;19909;-84
2022/11/22 14:12:54;;;;;;;;;;;10.60;99.90;;;;;;5052105;28;20371;-84
2022/11/22 14:15:22;;;;;;;;;;;10.80;99.90;;;;;;5051902;28;19916;-83
2022/11/22 14:18:06;;;;;;;;;;;10.90;99.90;;;;;;5036636;28;20366;-83
2022/11/22 14:20:38;;;;;;;;;;;10.90;99.90;;;;;;5051539;28;19909;-84
2022/11/22 14:23:03;;;;;;;;;;;10.90;99.90;;;;;;5036485;28;19909;-84
2022/11/22 14:25:35;;;;;;;;;;;10.80;99.90;;;;;;5036357;28;19909;-84
2022/11/22 14:28:18;;;;;;;;;;;10.70;99.90;;;;;;5036172;28;19913;-84
2022/11/22 14:30:50;;;;;;;;;;;10.60;99.90;;;;;;5036489;28;19913;-84
2022/11/22 14:33:22;;;;;;;;;;;10.50;99.90;;;;;;5051503;28;19975;-84
2022/11/22 14:36:06;;;;;;;;;;;10.40;99.90;;;;;;5051355;28;20003;-83
2022/11/22 14:38:35;;;;;;;;;;;10.40;99.90;;;;;;5052115;28;20362;-83
2022/11/22 14:41:19;;;;;;;;;;;10.30;99.90;;;;;;5036027;28;19916;-84
2022/11/22 14:43:48;;;;;;;;;;;10.30;99.90;;;;;;5037004;28;20004;-84
2022/11/22 14:46:18;;;;;;;;;;;10.30;99.90;;;;;;5051225;28;19913;-83
2022/11/22 14:49:05;;;;;;;;;;;10.30;99.90;;;;;;5051005;28;20424;-84
2022/11/22 14:51:32;;;;;;;;;;;10.30;99.90;;;;;;5035151;28;19916;-83
2022/11/22 14:53:58;;;;;;;;;;;10.30;99.90;;;;;;5050886;28;20276;-84
2022/11/22 14:56:34;;;;;;;;;;;10.20;99.90;;;;;;5050865;28;19913;-84
2022/11/22 14:58:59;;;;;;;;;;;10.30;99.90;;;;;;5035316;28;19909;-84
2022/11/22 15:01:43;;;;;;;;;;;10.30;99.90;;;;;;5049629;28;19909;-84
2022/11/22 15:04:12;;;;;;;;;;;10.30;99.90;;;;;;5050771;28;19948;-83
2022/11/22 15:06:47;;;;;;;;;;;10.30;99.90;;;;;;5050917;28;19909;-83
2022/11/22 15:09:15;;;;;;;;;;;10.30;99.90;;;;;;5050636;28;20007;-83
2022/11/22 15:11:51;;;;;;;;;;;10.20;99.90;;;;;;5050270;28;19917;-83
2022/11/22 15:14:36;;;;;;;;;;;10.10;99.90;;;;;;5050850;28;19909;-84